createdAt,value
2023-09-25T00:01:44.388Z,100433.63
2023-09-25T00:04:11.996Z,100432.75
2023-09-25T00:06:39.327Z,100430.91
2023-09-25T00:09:09.709Z,100432.66
2023-09-25T00:11:37.276Z,100422.97
2023-09-25T00:14:04.901Z,100415.84
2023-09-25T00:16:32.114Z,100424.56
2023-09-25T00:18:59.693Z,100423.72
2023-09-25T00:21:27.052Z,100413.34
2023-09-25T00:23:54.701Z,100417.75
2023-09-25T00:26:22.223Z,100416.00
2023-09-25T00:28:49.707Z,100411.56
2023-09-25T00:31:17.333Z,100403.56
2023-09-25T00:33:44.892Z,100397.47
2023-09-25T00:36:12.175Z,100393.06
2023-09-25T00:38:39.454Z,100389.53
2023-09-25T00:41:06.990Z,100399.19
2023-09-25T00:43:34.194Z,100397.41
2023-09-25T00:46:01.404Z,100401.00
2023-09-25T00:48:29.699Z,100405.34
2023-09-25T00:50:57.867Z,100406.09
2023-09-25T00:53:27.294Z,100405.12
2023-09-25T00:55:54.993Z,100402.69
2023-09-25T00:58:22.261Z,100388.59
2023-09-25T01:00:49.539Z,100396.16
2023-09-25T01:03:17.250Z,100399.97
2023-09-25T01:05:44.850Z,100390.97
2023-09-25T01:08:13.950Z,100400.91
2023-09-25T01:10:42.086Z,100415.81
2023-09-25T01:13:11.412Z,100424.72
2023-09-25T01:15:40.372Z,100429.09
2023-09-25T01:18:09.538Z,100432.28
2023-09-25T01:20:37.133Z,100425.28
2023-09-25T01:23:04.780Z,100429.72
2023-09-25T01:25:32.366Z,100426.78
2023-09-25T01:27:59.630Z,100431.47
2023-09-25T01:30:27.199Z,100437.81
2023-09-25T01:32:54.865Z,100429.81
2023-09-25T01:35:24.585Z,100430.53
2023-09-25T01:37:53.200Z,100435.12
2023-09-25T01:40:20.774Z,100437.00
2023-09-25T01:42:48.659Z,100434.97
2023-09-25T01:45:20.861Z,100424.22
2023-09-25T01:47:53.377Z,100419.06
2023-09-25T01:50:22.379Z,100424.44
2023-09-25T01:52:52.020Z,100410.41
2023-09-25T01:55:19.240Z,100404.38
2023-09-25T01:57:46.709Z,100399.09
2023-09-25T02:00:14.582Z,100384.59
2023-09-25T02:02:43.062Z,100370.44
2023-09-25T02:05:10.690Z,100359.84
2023-09-25T02:07:38.072Z,100345.66
2023-09-25T02:10:06.103Z,100349.16
2023-09-25T02:12:33.820Z,100351.78
2023-09-25T02:15:03.430Z,100349.69
2023-09-25T02:17:33.271Z,100344.25
2023-09-25T02:20:14.914Z,100349.47
2023-09-25T02:22:42.209Z,100339.06
2023-09-25T02:25:10.210Z,100332.88
2023-09-25T02:27:38.295Z,100335.28
2023-09-25T02:30:07.235Z,100322.75
2023-09-25T02:32:34.753Z,100317.28
2023-09-25T02:35:02.184Z,100288.53
2023-09-25T02:37:30.631Z,100280.53
2023-09-25T02:39:58.083Z,100295.09
2023-09-25T02:42:25.336Z,100292.56
2023-09-25T02:44:52.874Z,100302.25
2023-09-25T02:47:20.361Z,100310.97
2023-09-25T02:49:47.564Z,100313.50
2023-09-25T02:52:14.831Z,100319.72
2023-09-25T02:54:42.389Z,100319.72
2023-09-25T02:57:10.221Z,100318.97
2023-09-25T02:59:37.616Z,100318.97
2023-09-25T03:02:05.147Z,100314.59
2023-09-25T03:04:33.211Z,100316.34
2023-09-25T03:07:00.473Z,100321.66
2023-09-25T03:09:28.694Z,100318.97
2023-09-25T03:11:56.303Z,100315.47
2023-09-25T03:14:23.551Z,100330.41
2023-09-25T03:16:51.026Z,100336.28
2023-09-25T03:19:18.257Z,100340.88
2023-09-25T03:21:45.942Z,100345.41
2023-09-25T03:24:13.472Z,100357.78
2023-09-25T03:26:40.696Z,100356.03
2023-09-25T03:29:07.935Z,100356.06
2023-09-25T03:31:35.433Z,100360.44
2023-09-25T03:34:02.712Z,100370.13
2023-09-25T03:36:30.109Z,100368.31
2023-09-25T03:38:58.152Z,100363.91
2023-09-25T03:41:25.459Z,100371.91
2023-09-25T03:43:52.666Z,100394.88
2023-09-25T03:46:20.396Z,100410.69
2023-09-25T03:48:48.198Z,100420.41
2023-09-25T03:51:16.169Z,100427.44
2023-09-25T03:53:43.730Z,100437.13
2023-09-25T03:56:11.402Z,100441.50
2023-09-25T03:58:38.607Z,100461.81
2023-09-25T04:01:06.224Z,100458.34
2023-09-25T04:03:34.089Z,100460.94
2023-09-25T04:06:01.477Z,100462.62
2023-09-25T04:08:28.667Z,100464.41
2023-09-25T04:10:56.127Z,100473.34
2023-09-25T04:13:24.165Z,100473.25
2023-09-25T04:15:55.708Z,100476.63
2023-09-25T04:18:23.367Z,100481.19
2023-09-25T04:20:51.292Z,100481.19
2023-09-25T04:23:18.524Z,100483.00
2023-09-25T04:25:52.670Z,100484.78
2023-09-25T04:28:21.328Z,100481.94
2023-09-25T04:30:49.378Z,100474.81
2023-09-25T04:33:16.671Z,100474.72
2023-09-25T04:35:44.057Z,100477.50
2023-09-25T04:38:11.586Z,100480.25
2023-09-25T04:40:38.841Z,100483.84
2023-09-25T04:43:06.028Z,100488.31
2023-09-25T04:45:33.591Z,100486.53
2023-09-25T04:48:01.001Z,100488.13
2023-09-25T04:50:28.229Z,100479.38
2023-09-25T04:52:55.690Z,100483.78
2023-09-25T04:55:22.957Z,100483.56
2023-09-25T04:57:50.412Z,100490.97
2023-09-25T05:00:28.403Z,100489.16
2023-09-25T05:02:57.013Z,100487.41
2023-09-25T05:05:24.900Z,100497.87
2023-09-25T05:07:53.056Z,100489.06
2023-09-25T05:10:22.900Z,100487.13
2023-09-25T05:12:51.151Z,100499.31
2023-09-25T05:15:18.887Z,100495.25
2023-09-25T05:17:46.500Z,100497.09
2023-09-25T05:20:17.204Z,100502.34
2023-09-25T05:22:45.832Z,100495.28
2023-09-25T05:25:13.963Z,100506.75
2023-09-25T05:27:42.260Z,100511.97
2023-09-25T05:30:13.262Z,100512.09
2023-09-25T05:32:41.529Z,100510.31
2023-09-25T05:35:09.787Z,100496.19
2023-09-25T05:37:37.822Z,100505.69
2023-09-25T05:40:11.939Z,100505.31
2023-09-25T05:42:39.688Z,100510.25
2023-09-25T05:45:07.414Z,100511.94
2023-09-25T05:47:35.068Z,100512.06
2023-09-25T05:50:04.052Z,100524.41
2023-09-25T05:52:31.266Z,100535.00
2023-09-25T05:54:58.569Z,100536.81
2023-09-25T05:57:26.990Z,100532.19
2023-09-25T05:59:54.274Z,100542.94
2023-09-25T06:02:25.128Z,100542.78
2023-09-25T06:04:55.780Z,100541.00
2023-09-25T06:07:23.159Z,100542.78
2023-09-25T06:09:50.435Z,100548.25
2023-09-25T06:12:17.986Z,100547.34
2023-09-25T06:14:45.356Z,100551.72
2023-09-25T06:17:12.645Z,100552.78
2023-09-25T06:19:40.622Z,100554.53
2023-09-25T06:22:07.950Z,100564.22
2023-09-25T06:24:35.166Z,100559.66
2023-09-25T06:27:05.953Z,100557.09
2023-09-25T06:29:33.168Z,100568.44
2023-09-25T06:32:02.008Z,100566.53
2023-09-25T06:34:29.910Z,100568.16
2023-09-25T06:36:57.331Z,100567.34
2023-09-25T06:39:24.909Z,100573.38
2023-09-25T06:41:52.561Z,100569.84
2023-09-25T06:44:20.926Z,100578.19
2023-09-25T06:46:48.370Z,100580.72
2023-09-25T06:49:16.653Z,100583.44
2023-09-25T06:51:43.927Z,100586.84
2023-09-25T06:54:13.068Z,100588.84
2023-09-25T06:56:40.638Z,100588.94
2023-09-25T06:59:07.839Z,100587.91
2023-09-25T07:01:35.103Z,100594.56
2023-09-25T07:04:02.875Z,100595.44
2023-09-25T07:06:31.466Z,100599.09
2023-09-25T07:08:58.823Z,100595.25
2023-09-25T07:11:26.533Z,100603.59
2023-09-25T07:13:54.418Z,100596.87
2023-09-25T07:16:21.717Z,100599.06
2023-09-25T07:18:50.537Z,100594.13
2023-09-25T07:21:18.198Z,100593.47
2023-09-25T07:23:45.728Z,100585.59
2023-09-25T07:26:16.938Z,100584.66
2023-09-25T07:28:46.136Z,100578.53
2023-09-25T07:31:16.625Z,100589.09
2023-09-25T07:33:44.263Z,100590.53
2023-09-25T07:36:11.606Z,100591.09
2023-09-25T07:38:39.231Z,100593.50
2023-09-25T07:41:07.178Z,100598.41
2023-09-25T07:46:05.192Z,100610.88
2023-09-25T07:48:32.676Z,100607.75
2023-09-25T07:51:00.142Z,100615.03
2023-09-25T07:53:29.645Z,100617.03
2023-09-25T07:55:58.223Z,100618.69
2023-09-25T07:58:25.445Z,100619.06
2023-09-25T08:00:56.338Z,100620.88
2023-09-25T08:03:24.532Z,100624.88
2023-09-25T08:05:54.706Z,100636.38
2023-09-25T08:08:22.587Z,100641.38
2023-09-25T08:10:50.138Z,100652.12
2023-09-25T08:13:19.474Z,100650.34
2023-09-25T08:15:46.731Z,100652.53
2023-09-25T08:18:15.533Z,100655.66
2023-09-25T08:20:42.879Z,100647.53
2023-09-25T08:23:10.728Z,100656.94
2023-09-25T08:25:38.262Z,100648.81
2023-09-25T08:28:05.439Z,100640.69
2023-09-25T08:30:33.363Z,100626.84
2023-09-25T08:33:01.002Z,100625.78
2023-09-25T08:35:28.249Z,100628.50
2023-09-25T08:37:55.887Z,100633.03
2023-09-25T08:40:23.526Z,100633.00
2023-09-25T08:42:59.012Z,100635.06
2023-09-25T08:45:38.213Z,100635.75
2023-09-25T08:48:06.461Z,100631.59
2023-09-25T08:50:34.510Z,100630.66
2023-09-25T08:53:02.553Z,100624.38
2023-09-25T08:55:30.284Z,100623.06
2023-09-25T08:57:57.984Z,100627.37
2023-09-25T09:00:25.741Z,100628.38
2023-09-25T09:02:53.356Z,100626.25
2023-09-25T09:05:20.615Z,100630.81
2023-09-25T09:08:01.230Z,100637.09
2023-09-25T09:10:32.242Z,100626.94
2023-09-25T09:13:03.077Z,100638.00
2023-09-25T09:15:31.605Z,100633.72
2023-09-25T09:17:59.185Z,100636.41
2023-09-25T09:20:37.699Z,100646.09
2023-09-25T09:23:07.169Z,100646.47
2023-09-25T09:25:35.245Z,100649.41
2023-09-25T09:28:05.752Z,100650.69
2023-09-25T09:30:33.181Z,100653.47
2023-09-25T09:33:00.760Z,100652.38
2023-09-25T09:35:28.554Z,100657.87
2023-09-25T09:37:56.814Z,100653.19
2023-09-25T09:40:25.434Z,100655.94
2023-09-25T09:42:53.295Z,100649.03
2023-09-25T09:45:21.070Z,100638.41
2023-09-25T09:47:54.681Z,100643.22
2023-09-25T09:50:22.753Z,100640.41
2023-09-25T09:52:50.497Z,100641.47
2023-09-25T09:55:18.878Z,100642.34
2023-09-25T09:57:46.418Z,100637.00
2023-09-25T10:00:14.215Z,100635.78
2023-09-25T10:02:41.827Z,100634.28
2023-09-25T10:05:12.304Z,100643.47
2023-09-25T10:07:58.507Z,100641.75
2023-09-25T10:10:26.009Z,100645.72
2023-09-25T10:12:54.157Z,100653.13
2023-09-25T10:15:23.205Z,100647.47
2023-09-25T10:17:50.843Z,100649.12
2023-09-25T10:20:34.795Z,100651.34
2023-09-25T10:23:09.396Z,100647.63
2023-09-25T10:25:56.923Z,100654.34
2023-09-25T10:28:31.541Z,100649.63
2023-09-25T10:30:59.577Z,100643.63
2023-09-25T10:33:30.625Z,100649.75
2023-09-25T10:36:01.967Z,100640.84
2023-09-25T10:38:32.349Z,100641.47
2023-09-25T10:41:00.901Z,100650.00
2023-09-25T10:43:28.150Z,100637.06
2023-09-25T10:45:56.113Z,100640.34
2023-09-25T10:48:26.658Z,100644.22
2023-09-25T10:50:54.019Z,100651.13
2023-09-25T10:53:23.100Z,100654.66
2023-09-25T10:55:50.949Z,100656.97
2023-09-25T10:58:19.552Z,100642.31
2023-09-25T11:00:47.391Z,100658.06
2023-09-25T11:03:14.898Z,100644.25
2023-09-25T11:05:42.738Z,100649.66
2023-09-25T11:08:11.543Z,100645.53
2023-09-25T11:10:39.405Z,100635.78
2023-09-25T11:13:07.003Z,100624.09
2023-09-25T11:15:38.177Z,100631.72
2023-09-25T11:18:08.013Z,100635.78
2023-09-25T11:20:35.913Z,100621.56
2023-09-25T11:23:18.349Z,100621.72
2023-09-25T11:25:51.928Z,100613.72
2023-09-25T11:28:26.604Z,100611.94
2023-09-25T11:30:57.275Z,100613.59
2023-09-25T11:33:25.009Z,100615.72
2023-09-25T11:35:56.969Z,100613.13
2023-09-25T11:38:26.519Z,100610.66
2023-09-25T11:40:54.453Z,100604.72
2023-09-25T11:43:24.401Z,100613.78
2023-09-25T11:45:52.015Z,100604.81
2023-09-25T11:48:19.842Z,100609.03
2023-09-25T11:50:47.917Z,100601.31
2023-09-25T11:53:15.584Z,100602.78
2023-09-25T11:55:42.819Z,100594.19
2023-09-25T11:58:10.686Z,100592.53
2023-09-25T12:00:38.375Z,100588.56
2023-09-25T12:03:09.937Z,100591.09
2023-09-25T12:05:38.346Z,100582.03
2023-09-25T12:08:13.620Z,100582.41
2023-09-25T12:10:40.948Z,100582.03
2023-09-25T12:13:10.044Z,100575.16
2023-09-25T12:15:37.633Z,100578.06
2023-09-25T12:18:05.340Z,100571.50
2023-09-25T12:20:33.303Z,100565.09
2023-09-25T12:23:00.502Z,100565.00
2023-09-25T12:25:28.766Z,100560.62
2023-09-25T12:27:56.372Z,100554.28
2023-09-25T12:30:23.730Z,100556.22
2023-09-25T12:32:51.169Z,100555.56
2023-09-25T12:35:19.888Z,100552.88
2023-09-25T12:37:47.819Z,100543.38
2023-09-25T12:40:18.665Z,100550.03
2023-09-25T12:42:55.287Z,100545.63
2023-09-25T12:45:24.200Z,100553.03
2023-09-25T12:47:52.191Z,100558.00
2023-09-25T12:50:19.513Z,100552.72
2023-09-25T12:52:49.717Z,100545.78
2023-09-25T12:55:17.328Z,100552.66
2023-09-25T12:57:44.632Z,100550.34
2023-09-25T13:00:12.045Z,100553.38
2023-09-25T13:02:39.574Z,100545.91
2023-09-25T13:05:07.283Z,100550.78
2023-09-25T13:07:34.744Z,100559.28
2023-09-25T13:10:08.777Z,100557.50
2023-09-25T13:12:36.119Z,100560.19
2023-09-25T13:15:05.288Z,100553.13
2023-09-25T13:17:35.233Z,100562.59
2023-09-25T13:20:08.902Z,100561.44
2023-09-25T13:22:38.252Z,100556.88
2023-09-25T13:25:06.701Z,100557.25
2023-09-25T13:27:34.244Z,100556.75
2023-09-25T13:30:01.695Z,100548.25
2023-09-25T13:32:29.922Z,100548.78
2023-09-25T13:34:57.338Z,100550.09
2023-09-25T13:37:24.631Z,100548.16
2023-09-25T13:39:52.127Z,100543.06
2023-09-25T13:42:20.051Z,100546.91
2023-09-25T13:44:47.457Z,100551.03
2023-09-25T13:47:15.404Z,100548.94
2023-09-25T13:50:02.913Z,100542.88
2023-09-25T13:52:31.714Z,100541.09
2023-09-25T13:54:59.089Z,100542.00
2023-09-25T13:57:26.338Z,100541.75
2023-09-25T13:59:54.175Z,100532.81
2023-09-25T14:02:23.735Z,100536.06
2023-09-25T14:04:52.504Z,100527.25
2023-09-25T14:07:20.687Z,100523.94
2023-09-25T14:09:47.946Z,100526.62
2023-09-25T14:12:15.426Z,100524.16
2023-09-25T14:14:43.626Z,100526.06
2023-09-25T14:17:10.952Z,100532.19
2023-09-25T14:19:38.442Z,100532.28
2023-09-25T14:22:05.727Z,100522.94
2023-09-25T14:24:39.908Z,100525.03
2023-09-25T14:27:11.118Z,100525.19
2023-09-25T14:29:39.164Z,100524.28
2023-09-25T14:32:06.625Z,100522.28
2023-09-25T14:34:34.255Z,100519.06
2023-09-25T14:37:01.577Z,100516.91
2023-09-25T14:39:30.119Z,100514.69
2023-09-25T14:41:57.968Z,100521.19
2023-09-25T14:44:26.007Z,100519.16
2023-09-25T14:46:54.661Z,100518.63
2023-09-25T14:49:22.515Z,100519.72
2023-09-25T14:51:52.590Z,100524.34
2023-09-25T14:54:20.395Z,100519.47
2023-09-25T14:56:47.863Z,100514.25
2023-09-25T14:59:15.093Z,100512.16
2023-09-25T15:01:42.395Z,100507.78
2023-09-25T15:04:10.267Z,100512.19
2023-09-25T15:06:37.594Z,100515.94
2023-09-25T15:09:05.015Z,100516.78
2023-09-25T15:11:32.583Z,100509.13
2023-09-25T15:14:00.130Z,100518.50
2023-09-25T15:16:27.707Z,100522.97
2023-09-25T15:18:55.319Z,100523.66
2023-09-25T15:21:22.561Z,100519.31
2023-09-25T15:23:50.080Z,100524.41
2023-09-25T15:26:17.725Z,100519.47
2023-09-25T15:28:45.032Z,100520.38
2023-09-25T15:31:12.356Z,100528.00
2023-09-25T15:33:40.047Z,100520.66
2023-09-25T15:36:07.835Z,100532.13
2023-09-25T15:38:35.261Z,100529.88
2023-09-25T15:41:02.875Z,100538.97
2023-09-25T15:43:30.405Z,100538.63
2023-09-25T15:45:57.689Z,100536.03
2023-09-25T15:48:27.009Z,100538.25
2023-09-25T15:50:54.278Z,100537.50
2023-09-25T15:53:21.578Z,100541.16
2023-09-25T15:55:49.348Z,100541.97
2023-09-25T15:58:17.199Z,100536.13
2023-09-25T16:00:44.614Z,100539.53
2023-09-25T16:03:12.812Z,100537.56
2023-09-25T16:05:40.462Z,100538.37
2023-09-25T16:08:07.980Z,100534.63
2023-09-25T16:10:35.659Z,100532.53
2023-09-25T16:13:03.218Z,100537.97
2023-09-25T16:15:34.254Z,100535.75
2023-09-25T16:18:05.429Z,100538.59
2023-09-25T16:20:34.175Z,100537.38
2023-09-25T16:23:01.651Z,100537.72
2023-09-25T16:25:30.089Z,100544.91
2023-09-25T16:27:57.715Z,100538.78
2023-09-25T16:30:26.421Z,100538.37
2023-09-25T16:32:54.588Z,100541.69
2023-09-25T16:35:22.333Z,100542.75
2023-09-25T16:37:49.933Z,100538.19
2023-09-25T16:40:17.562Z,100547.06
2023-09-25T16:42:45.416Z,100548.41
2023-09-25T16:45:13.281Z,100548.87
2023-09-25T16:47:44.294Z,100548.09
2023-09-25T16:50:11.563Z,100566.50
2023-09-25T16:52:41.443Z,100556.03
2023-09-25T16:55:10.680Z,100554.16
2023-09-25T16:57:38.168Z,100555.91
2023-09-25T17:00:06.483Z,100562.06
2023-09-25T17:02:34.796Z,100564.03
2023-09-25T17:05:02.187Z,100556.34
2023-09-25T17:07:29.844Z,100553.00
2023-09-25T17:09:58.839Z,100556.53
2023-09-25T17:12:26.488Z,100558.66
2023-09-25T17:14:54.659Z,100564.44
2023-09-25T17:17:23.228Z,100569.78
2023-09-25T17:19:51.186Z,100565.84
2023-09-25T17:22:18.627Z,100568.34
2023-09-25T17:24:46.432Z,100574.12
2023-09-25T17:27:17.434Z,100573.63
2023-09-25T17:29:47.823Z,100576.81
2023-09-25T17:32:15.677Z,100582.31
2023-09-25T17:34:46.998Z,100580.34
2023-09-25T17:37:15.498Z,100576.72
2023-09-25T17:39:43.421Z,100584.00
2023-09-25T17:42:11.155Z,100590.25
2023-09-25T17:44:39.010Z,100589.19
2023-09-25T17:47:06.796Z,100594.56
2023-09-25T17:49:34.724Z,100593.97
2023-09-25T17:52:14.114Z,100596.91
2023-09-25T17:54:50.240Z,100597.06
2023-09-25T17:57:18.452Z,100599.03
2023-09-25T17:59:46.805Z,100602.50
2023-09-25T18:02:15.890Z,100600.84
2023-09-25T18:04:45.246Z,100603.72
2023-09-25T18:07:13.332Z,100612.16
2023-09-25T18:09:41.517Z,100611.53
2023-09-25T18:12:10.722Z,100612.56
2023-09-25T18:14:41.974Z,100607.84
2023-09-25T18:17:10.669Z,100606.16
2023-09-25T18:19:39.244Z,100610.03
2023-09-25T18:22:07.797Z,100606.25
2023-09-25T18:24:36.579Z,100603.47
2023-09-25T18:27:05.615Z,100606.78
2023-09-25T18:29:36.626Z,100605.31
2023-09-25T18:32:07.279Z,100606.72
2023-09-25T18:34:39.320Z,100610.28
2023-09-25T18:37:09.198Z,100619.13
2023-09-25T18:39:37.938Z,100610.16
2023-09-25T18:42:07.173Z,100610.03
2023-09-25T18:44:37.461Z,100608.56
2023-09-25T18:47:06.624Z,100607.38
2023-09-25T18:49:36.912Z,100622.63
2023-09-25T18:52:05.457Z,100615.31
2023-09-25T18:54:35.116Z,100612.91
2023-09-25T18:57:03.798Z,100625.41
2023-09-25T18:59:31.319Z,100616.34
2023-09-25T19:02:00.964Z,100620.19
2023-09-25T19:04:29.759Z,100635.19
2023-09-25T19:06:58.231Z,100631.38
2023-09-25T19:09:29.193Z,100624.28
2023-09-25T19:12:08.341Z,100632.53
2023-09-25T19:14:36.490Z,100629.16
2023-09-25T19:17:05.752Z,100627.88
2023-09-25T19:19:33.556Z,100635.09
2023-09-25T19:22:01.633Z,100628.81
2023-09-25T19:24:29.734Z,100633.59
2023-09-25T19:26:58.316Z,100632.75
2023-09-25T19:29:28.502Z,100636.41
2023-09-25T19:31:57.784Z,100638.44
2023-09-25T19:34:26.223Z,100633.87
2023-09-25T19:36:55.256Z,100636.81
2023-09-25T19:39:24.956Z,100639.16
2023-09-25T19:41:54.456Z,100638.91
2023-09-25T19:44:22.478Z,100643.87
2023-09-25T19:46:50.717Z,100642.06
2023-09-25T19:49:20.709Z,100646.69
2023-09-25T19:51:50.401Z,100642.00
2023-09-25T19:54:20.776Z,100642.06
2023-09-25T19:56:49.124Z,100644.69
2023-09-25T19:59:16.657Z,100639.06
2023-09-25T20:01:45.794Z,100646.28
2023-09-25T20:04:14.139Z,100650.47
2023-09-25T20:06:41.895Z,100647.09
2023-09-25T20:09:11.495Z,100640.19
2023-09-25T20:11:39.294Z,100644.75
2023-09-25T20:14:07.192Z,100643.00
2023-09-25T20:16:34.959Z,100640.94
2023-09-25T20:19:03.646Z,100649.78
2023-09-25T20:21:31.077Z,100639.97
2023-09-25T20:23:58.526Z,100635.44
2023-09-25T20:26:26.918Z,100634.59
2023-09-25T20:28:54.179Z,100636.22
2023-09-25T20:31:22.203Z,100644.22
2023-09-25T20:33:50.174Z,100643.03
2023-09-25T20:36:18.985Z,100643.28
2023-09-25T20:38:48.727Z,100639.44
2023-09-25T20:41:17.493Z,100644.63
2023-09-25T20:43:45.031Z,100642.59
2023-09-25T20:46:13.791Z,100638.59
2023-09-25T20:48:43.053Z,100638.31
2023-09-25T20:51:15.085Z,100643.28
2023-09-25T20:53:44.004Z,100643.34
2023-09-25T20:56:11.618Z,100643.44
2023-09-25T20:58:39.104Z,100642.59
2023-09-25T21:01:08.554Z,100643.84
2023-09-25T21:03:35.946Z,100641.53
2023-09-25T21:06:03.308Z,100648.69
2023-09-25T21:08:30.830Z,100641.72
2023-09-25T21:10:59.288Z,100643.56
2023-09-25T21:13:26.658Z,100634.75
2023-09-25T21:15:54.174Z,100641.31
2023-09-25T21:18:21.472Z,100642.72
2023-09-25T21:20:48.847Z,100641.28
2023-09-25T21:23:16.345Z,100648.44
2023-09-25T21:25:43.808Z,100643.84
2023-09-25T21:28:11.063Z,100646.72
2023-09-25T21:30:40.743Z,100650.87
2023-09-25T21:33:08.184Z,100649.28
2023-09-25T21:35:37.854Z,100654.19
2023-09-25T21:38:05.394Z,100649.59
2023-09-25T21:40:32.614Z,100657.22
2023-09-25T21:43:00.031Z,100648.59
2023-09-25T21:45:27.743Z,100648.88
2023-09-25T21:47:54.960Z,100649.22
2023-09-25T21:50:22.456Z,100650.16
2023-09-25T21:52:50.000Z,100643.97
2023-09-25T21:55:17.356Z,100641.38
2023-09-25T21:57:44.614Z,100642.91
2023-09-25T22:00:15.146Z,100636.94
2023-09-25T22:02:42.846Z,100643.16
2023-09-25T22:05:10.833Z,100642.97
2023-09-25T22:07:38.961Z,100644.72
2023-09-25T22:10:11.831Z,100643.06
2023-09-25T22:12:39.408Z,100642.97
2023-09-25T22:15:07.716Z,100640.41
2023-09-25T22:17:34.989Z,100641.50
2023-09-25T22:20:05.757Z,100639.66
2023-09-25T22:22:33.674Z,100638.47
2023-09-25T22:25:01.047Z,100638.91
2023-09-25T22:27:28.259Z,100644.03
2023-09-25T22:29:55.688Z,100645.03
2023-09-25T22:32:22.854Z,100644.16
2023-09-25T22:34:50.035Z,100634.31
2023-09-25T22:37:21.157Z,100637.59
2023-09-25T22:39:48.424Z,100627.53
2023-09-25T22:42:15.731Z,100633.44
2023-09-25T22:44:43.242Z,100630.00
2023-09-25T22:47:10.586Z,100629.81
2023-09-25T22:49:37.856Z,100634.16
2023-09-25T22:52:05.462Z,100630.94
2023-09-25T22:54:32.695Z,100626.44
2023-09-25T22:56:59.896Z,100624.31
2023-09-25T22:59:27.369Z,100633.13
2023-09-25T23:02:14.510Z,100628.97
2023-09-25T23:04:42.143Z,100637.34
2023-09-25T23:07:09.975Z,100630.28
2023-09-25T23:09:37.455Z,100631.91
2023-09-25T23:12:05.751Z,100624.69
2023-09-25T23:14:33.021Z,100623.66
2023-09-25T23:17:00.697Z,100621.59
2023-09-25T23:19:28.638Z,100622.03
2023-09-25T23:21:56.303Z,100622.81
2023-09-25T23:24:23.888Z,100622.72
2023-09-25T23:26:51.358Z,100620.16
2023-09-25T23:29:18.737Z,100623.84
2023-09-25T23:31:46.044Z,100621.19
2023-09-25T23:34:13.648Z,100624.81
2023-09-25T23:36:41.082Z,100624.44
2023-09-25T23:39:11.488Z,100619.28
2023-09-25T23:41:39.360Z,100621.06
2023-09-25T23:44:08.002Z,100614.00
2023-09-25T23:46:35.305Z,100615.22
2023-09-25T23:49:02.976Z,100619.44
2023-09-25T23:51:30.216Z,100617.41
2023-09-25T23:53:57.430Z,100612.88
2023-09-25T23:56:25.157Z,100612.53
2023-09-25T23:58:52.336Z,100618.03
